Strona główna
METAR-TAF:

METAR-TAF

Lotnisko :

Jinotega, Nikaragua

Szerokość geograficzna: 13-05N, Długość geograficzna: 085-59W, wysokość: 985 m

Aktualna obserwacja pogody

Raport powstał 4 godziny i 11 minut temu, godzina 23:00 UTC
Wiatr 6 kt od północ
Temperatura 23°C
Wilgotność 73%
Ciśnienie 1010 hPa
Widzialność 10 km lub więcej
Przerywane chmury na wysokości 1600 ft

METAR: MNJG 202300Z 36006KT 9999 BKN016 23/18 Q1010

czas: 21:11 (03:11 UTC)


TAF: brakujący

Obserwacja i prognoza pogody dla ponad 4000 lotnisk (raport METAR i TAF).

Dostępne stacje oznaczono żółtymi i czerwonymi punktami na mapie.

Najedź kursorem aby zobaczyć nazwę stacji.

Kliknij aby zobaczyć obserwacje i prognozy pogody.

Aby zmienić mapę: kliknij na zielony przycisk z czarnym krzyżykiem, aby powiększyć; na zielony przycisk z myślnikiem, aby pomniejszyć; na zielone strzałki, aby przejść do map sąsiednich.


METAR-TAF: